sensor_id;sensor_type;location;lat;lon;timestamp;pressure;altitude;pressure_sealevel;temperature;humidity
46778;BME280;32536;47.128;8.746;2023-07-29T00:01:56;91502.22;;;22.14;47.53
46778;BME280;32536;47.128;8.746;2023-07-29T00:04:23;91496.69;;;22.08;47.73
46778;BME280;32536;47.128;8.746;2023-07-29T00:06:49;91487.25;;;22.03;47.92
46778;BME280;32536;47.128;8.746;2023-07-29T00:09:16;91474.06;;;22.02;47.70
46778;BME280;32536;47.128;8.746;2023-07-29T00:11:43;91464.66;;;22.03;48.23
46778;BME280;32536;47.128;8.746;2023-07-29T00:14:09;91465.44;;;22.03;48.05
46778;BME280;32536;47.128;8.746;2023-07-29T00:16:36;91469.88;;;22.01;47.95
46778;BME280;32536;47.128;8.746;2023-07-29T00:19:03;91473.28;;;21.96;48.38
46778;BME280;32536;47.128;8.746;2023-07-29T00:21:30;91470.31;;;21.94;48.34
46778;BME280;32536;47.128;8.746;2023-07-29T00:23:56;91462.13;;;21.94;48.54
46778;BME280;32536;47.128;8.746;2023-07-29T00:26:23;91455.91;;;21.93;48.49
46778;BME280;32536;47.128;8.746;2023-07-29T00:28:51;91463.13;;;21.96;48.49
46778;BME280;32536;47.128;8.746;2023-07-29T00:31:18;91454.94;;;21.96;48.46
46778;BME280;32536;47.128;8.746;2023-07-29T00:33:45;91460.66;;;21.98;48.81
46778;BME280;32536;47.128;8.746;2023-07-29T00:36:11;91456.69;;;21.99;48.73
46778;BME280;32536;47.128;8.746;2023-07-29T00:38:38;91455.47;;;22.00;48.46
46778;BME280;32536;47.128;8.746;2023-07-29T00:41:05;91461.44;;;22.04;48.65
46778;BME280;32536;47.128;8.746;2023-07-29T00:43:32;91440.66;;;22.07;48.46
46778;BME280;32536;47.128;8.746;2023-07-29T00:45:59;91443.63;;;22.03;49.02
46778;BME280;32536;47.128;8.746;2023-07-29T00:48:26;91440.34;;;21.99;49.08
46778;BME280;32536;47.128;8.746;2023-07-29T00:50:54;91433.34;;;21.93;49.25
46778;BME280;32536;47.128;8.746;2023-07-29T00:53:20;91427.78;;;21.81;49.60
46778;BME280;32536;47.128;8.746;2023-07-29T00:55:47;91432.09;;;21.67;49.70
46778;BME280;32536;47.128;8.746;2023-07-29T00:58:14;91430.28;;;21.58;49.60
46778;BME280;32536;47.128;8.746;2023-07-29T01:00:41;91438.19;;;21.56;49.38
46778;BME280;32536;47.128;8.746;2023-07-29T01:03:08;91442.88;;;21.56;49.79
46778;BME280;32536;47.128;8.746;2023-07-29T01:06:15;91443.56;;;21.51;53.52
46778;BME280;32536;47.128;8.746;2023-07-29T01:09:00;91439.13;;;21.53;50.82
46778;BME280;32536;47.128;8.746;2023-07-29T01:14:40;91434.41;;;21.54;49.78
46778;BME280;32536;47.128;8.746;2023-07-29T01:17:33;91434.22;;;21.57;49.75
46778;BME280;32536;47.128;8.746;2023-07-29T01:20:10;91432.44;;;21.54;49.92
46778;BME280;32536;47.128;8.746;2023-07-29T01:22:41;91438.94;;;21.57;49.42
46778;BME280;32536;47.128;8.746;2023-07-29T01:25:09;91437.69;;;21.58;49.50
46778;BME280;32536;47.128;8.746;2023-07-29T01:27:35;91436.25;;;21.63;49.60
46778;BME280;32536;47.128;8.746;2023-07-29T01:30:03;91449.69;;;21.66;49.55
46778;BME280;32536;47.128;8.746;2023-07-29T01:32:52;91446.00;;;21.69;50.45
46778;BME280;32536;47.128;8.746;2023-07-29T01:35:45;91445.81;;;21.73;50.69
46778;BME280;32536;47.128;8.746;2023-07-29T01:38:36;91441.38;;;21.75;50.52
46778;BME280;32536;47.128;8.746;2023-07-29T01:41:07;91429.22;;;21.77;49.80
46778;BME280;32536;47.128;8.746;2023-07-29T01:43:36;91431.75;;;21.80;49.50
46778;BME280;32536;47.128;8.746;2023-07-29T01:46:10;91436.22;;;21.83;49.61
46778;BME280;32536;47.128;8.746;2023-07-29T01:49:10;91440.66;;;21.81;49.74
46778;BME280;32536;47.128;8.746;2023-07-29T01:51:37;91434.19;;;21.78;49.35
46778;BME280;32536;47.128;8.746;2023-07-29T01:54:03;91433.47;;;21.78;49.16
46778;BME280;32536;47.128;8.746;2023-07-29T01:56:30;91431.97;;;21.77;49.20
46778;BME280;32536;47.128;8.746;2023-07-29T01:58:57;91433.47;;;21.78;49.24
46778;BME280;32536;47.128;8.746;2023-07-29T02:01:23;91430.72;;;21.78;49.35
46778;BME280;32536;47.128;8.746;2023-07-29T02:03:50;91424.03;;;21.79;49.62
46778;BME280;32536;47.128;8.746;2023-07-29T02:06:21;91422.28;;;21.75;49.74
46778;BME280;32536;47.128;8.746;2023-07-29T02:08:48;91408.66;;;21.75;49.29
46778;BME280;32536;47.128;8.746;2023-07-29T02:11:14;91414.59;;;21.74;49.77
46778;BME280;32536;47.128;8.746;2023-07-29T02:13:41;91418.25;;;21.71;49.52
46778;BME280;32536;47.128;8.746;2023-07-29T02:16:08;91407.56;;;21.67;49.60
46778;BME280;32536;47.128;8.746;2023-07-29T02:18:34;91395.88;;;21.61;49.75
46778;BME280;32536;47.128;8.746;2023-07-29T02:21:01;91402.69;;;21.51;49.86
46778;BME280;32536;47.128;8.746;2023-07-29T02:23:28;91396.88;;;21.43;49.64
46778;BME280;32536;47.128;8.746;2023-07-29T02:25:55;91390.63;;;21.37;49.70
46778;BME280;32536;47.128;8.746;2023-07-29T02:28:22;91397.31;;;21.36;49.68
46778;BME280;32536;47.128;8.746;2023-07-29T02:31:09;91378.66;;;21.28;52.30
46778;BME280;32536;47.128;8.746;2023-07-29T02:33:43;91385.06;;;21.25;49.91
46778;BME280;32536;47.128;8.746;2023-07-29T02:36:12;91387.03;;;21.25;49.73
46778;BME280;32536;47.128;8.746;2023-07-29T02:38:39;91385.31;;;21.27;49.65
46778;BME280;32536;47.128;8.746;2023-07-29T02:41:08;91387.31;;;21.27;49.64
46778;BME280;32536;47.128;8.746;2023-07-29T02:43:36;91405.34;;;21.24;49.95
46778;BME280;32536;47.128;8.746;2023-07-29T02:46:02;91414.97;;;21.20;50.10
46778;BME280;32536;47.128;8.746;2023-07-29T02:48:30;91432.28;;;21.17;49.79
46778;BME280;32536;47.128;8.746;2023-07-29T02:50:56;91441.38;;;21.14;50.20
46778;BME280;32536;47.128;8.746;2023-07-29T02:53:23;91424.75;;;21.11;49.96
46778;BME280;32536;47.128;8.746;2023-07-29T02:55:50;91419.31;;;21.11;49.94
46778;BME280;32536;47.128;8.746;2023-07-29T02:58:17;91423.28;;;21.10;50.00
46778;BME280;32536;47.128;8.746;2023-07-29T03:00:44;91424.22;;;21.07;50.49
46778;BME280;32536;47.128;8.746;2023-07-29T03:03:10;91422.25;;;21.08;50.07
46778;BME280;32536;47.128;8.746;2023-07-29T03:05:37;91432.47;;;21.13;50.14
46778;BME280;32536;47.128;8.746;2023-07-29T03:08:04;91436.47;;;21.18;50.33
46778;BME280;32536;47.128;8.746;2023-07-29T03:10:31;91427.06;;;21.19;50.17
46778;BME280;32536;47.128;8.746;2023-07-29T03:13:00;91435.53;;;21.21;50.49
46778;BME280;32536;47.128;8.746;2023-07-29T03:15:26;91440.50;;;21.22;50.45
46778;BME280;32536;47.128;8.746;2023-07-29T03:17:53;91437.56;;;21.26;50.45
46778;BME280;32536;47.128;8.746;2023-07-29T03:20:20;91442.47;;;21.22;50.66
46778;BME280;32536;47.128;8.746;2023-07-29T03:22:46;91434.31;;;21.22;50.60
46778;BME280;32536;47.128;8.746;2023-07-29T03:25:13;91436.34;;;21.27;50.62
46778;BME280;32536;47.128;8.746;2023-07-29T03:27:40;91439.13;;;21.33;50.85
46778;BME280;32536;47.128;8.746;2023-07-29T03:30:07;91453.81;;;21.41;50.68
46778;BME280;32536;47.128;8.746;2023-07-29T03:32:34;91475.44;;;21.44;50.72
46778;BME280;32536;47.128;8.746;2023-07-29T03:35:00;91491.03;;;21.44;50.60
46778;BME280;32536;47.128;8.746;2023-07-29T03:37:27;91500.16;;;21.41;50.63
46778;BME280;32536;47.128;8.746;2023-07-29T03:39:54;91506.50;;;21.32;50.89
46778;BME280;32536;47.128;8.746;2023-07-29T03:42:20;91512.00;;;21.17;51.46
46778;BME280;32536;47.128;8.746;2023-07-29T03:44:47;91496.53;;;21.08;51.25
46778;BME280;32536;47.128;8.746;2023-07-29T03:47:14;91501.41;;;21.04;51.13
46778;BME280;32536;47.128;8.746;2023-07-29T03:49:40;91491.00;;;21.03;51.10
46778;BME280;32536;47.128;8.746;2023-07-29T03:52:07;91480.88;;;21.03;51.13
46778;BME280;32536;47.128;8.746;2023-07-29T03:54:34;91490.06;;;21.06;50.86
46778;BME280;32536;47.128;8.746;2023-07-29T03:57:00;91470.03;;;21.09;51.12
46778;BME280;32536;47.128;8.746;2023-07-29T03:59:27;91471.06;;;21.11;50.96
46778;BME280;32536;47.128;8.746;2023-07-29T04:01:54;91471.81;;;21.12;50.99
46778;BME280;32536;47.128;8.746;2023-07-29T04:04:21;91453.25;;;21.10;51.12
46778;BME280;32536;47.128;8.746;2023-07-29T04:06:48;91441.09;;;21.11;51.29
46778;BME280;32536;47.128;8.746;2023-07-29T04:09:15;91427.22;;;21.09;51.17
46778;BME280;32536;47.128;8.746;2023-07-29T04:11:41;91428.72;;;21.10;51.59
46778;BME280;32536;47.128;8.746;2023-07-29T04:14:08;91430.78;;;21.16;51.51
46778;BME280;32536;47.128;8.746;2023-07-29T04:16:35;91438.25;;;21.21;51.26
46778;BME280;32536;47.128;8.746;2023-07-29T04:19:01;91456.38;;;21.24;51.17
46778;BME280;32536;47.128;8.746;2023-07-29T04:21:28;91460.38;;;21.28;51.06
46778;BME280;32536;47.128;8.746;2023-07-29T04:23:55;91465.91;;;21.34;50.96
46778;BME280;32536;47.128;8.746;2023-07-29T04:26:21;91461.19;;;21.35;51.03
46778;BME280;32536;47.128;8.746;2023-07-29T04:28:48;91463.47;;;21.36;51.18
46778;BME280;32536;47.128;8.746;2023-07-29T04:31:15;91470.63;;;21.34;51.67
46778;BME280;32536;47.128;8.746;2023-07-29T04:33:42;91469.31;;;21.29;51.96
46778;BME280;32536;47.128;8.746;2023-07-29T04:36:09;91476.47;;;21.26;51.49
46778;BME280;32536;47.128;8.746;2023-07-29T04:38:37;91472.72;;;21.24;52.24
46778;BME280;32536;47.128;8.746;2023-07-29T04:41:04;91461.53;;;21.22;51.38
46778;BME280;32536;47.128;8.746;2023-07-29T04:43:32;91454.31;;;21.19;51.43
46778;BME280;32536;47.128;8.746;2023-07-29T04:45:59;91456.50;;;21.15;51.29
46778;BME280;32536;47.128;8.746;2023-07-29T04:48:26;91462.22;;;21.17;51.52
46778;BME280;32536;47.128;8.746;2023-07-29T04:50:52;91472.44;;;21.22;51.60
46778;BME280;32536;47.128;8.746;2023-07-29T04:53:19;91468.28;;;21.26;51.22
46778;BME280;32536;47.128;8.746;2023-07-29T04:55:46;91463.09;;;21.28;51.37
46778;BME280;32536;47.128;8.746;2023-07-29T04:58:12;91463.38;;;21.31;51.30
46778;BME280;32536;47.128;8.746;2023-07-29T05:00:39;91463.38;;;21.31;51.47
46778;BME280;32536;47.128;8.746;2023-07-29T05:03:06;91456.72;;;21.32;51.52
46778;BME280;32536;47.128;8.746;2023-07-29T05:05:32;91462.69;;;21.36;51.56
46778;BME280;32536;47.128;8.746;2023-07-29T05:07:59;91465.22;;;21.39;51.72
46778;BME280;32536;47.128;8.746;2023-07-29T05:10:26;91459.06;;;21.44;51.56
46778;BME280;32536;47.128;8.746;2023-07-29T05:12:52;91469.03;;;21.48;51.46
46778;BME280;32536;47.128;8.746;2023-07-29T05:15:19;91479.66;;;21.46;51.63
46778;BME280;32536;47.128;8.746;2023-07-29T05:17:46;91470.47;;;21.43;51.49
46778;BME280;32536;47.128;8.746;2023-07-29T05:20:12;91482.59;;;21.42;51.97
46778;BME280;32536;47.128;8.746;2023-07-29T05:22:39;91481.03;;;21.35;51.75
46778;BME280;32536;47.128;8.746;2023-07-29T05:25:06;91480.00;;;21.33;51.77
46778;BME280;32536;47.128;8.746;2023-07-29T05:27:33;91476.25;;;21.30;52.01
46778;BME280;32536;47.128;8.746;2023-07-29T05:30:00;91475.91;;;21.22;52.27
46778;BME280;32536;47.128;8.746;2023-07-29T05:32:27;91482.53;;;21.16;52.38
46778;BME280;32536;47.128;8.746;2023-07-29T05:34:53;91493.53;;;21.06;52.44
46778;BME280;32536;47.128;8.746;2023-07-29T05:37:20;91483.78;;;21.00;52.35
46778;BME280;32536;47.128;8.746;2023-07-29T05:39:47;91495.72;;;21.02;52.00
46778;BME280;32536;47.128;8.746;2023-07-29T05:42:13;91503.88;;;21.02;52.26
46778;BME280;32536;47.128;8.746;2023-07-29T05:44:40;91505.84;;;21.02;52.10
46778;BME280;32536;47.128;8.746;2023-07-29T05:47:07;91495.22;;;21.04;52.04
46778;BME280;32536;47.128;8.746;2023-07-29T05:49:33;91495.97;;;21.04;52.21
46778;BME280;32536;47.128;8.746;2023-07-29T05:52:00;91501.91;;;21.03;52.53
46778;BME280;32536;47.128;8.746;2023-07-29T05:54:27;91509.03;;;21.00;52.68
46778;BME280;32536;47.128;8.746;2023-07-29T05:56:53;91510.00;;;20.97;52.28
46778;BME280;32536;47.128;8.746;2023-07-29T05:59:20;91501.06;;;20.97;52.52
46778;BME280;32536;47.128;8.746;2023-07-29T06:01:47;91498.34;;;20.97;52.09
46778;BME280;32536;47.128;8.746;2023-07-29T06:04:14;91497.03;;;20.92;52.86
46778;BME280;32536;47.128;8.746;2023-07-29T06:06:40;91497.19;;;20.83;52.88
46778;BME280;32536;47.128;8.746;2023-07-29T06:09:07;91496.53;;;20.73;53.12
46778;BME280;32536;47.128;8.746;2023-07-29T06:11:34;91499.63;;;20.66;52.91
46778;BME280;32536;47.128;8.746;2023-07-29T06:14:00;91506.94;;;20.59;53.23
46778;BME280;32536;47.128;8.746;2023-07-29T06:16:27;91505.16;;;20.56;53.08
46778;BME280;32536;47.128;8.746;2023-07-29T06:18:54;91507.69;;;20.60;53.12
46778;BME280;32536;47.128;8.746;2023-07-29T06:21:20;91508.44;;;20.60;53.61
46778;BME280;32536;47.128;8.746;2023-07-29T06:23:47;91501.56;;;20.65;53.35
46778;BME280;32536;47.128;8.746;2023-07-29T06:26:14;91498.94;;;20.71;53.32
46778;BME280;32536;47.128;8.746;2023-07-29T06:28:41;91499.53;;;20.75;53.40
46778;BME280;32536;47.128;8.746;2023-07-29T06:31:28;91493.88;;;20.78;54.23
46778;BME280;32536;47.128;8.746;2023-07-29T06:33:55;91493.44;;;20.80;54.35
46778;BME280;32536;47.128;8.746;2023-07-29T06:39:56;91501.94;;;20.88;53.84
46778;BME280;32536;47.128;8.746;2023-07-29T06:42:23;91502.03;;;20.93;53.94
46778;BME280;32536;47.128;8.746;2023-07-29T06:44:50;91505.59;;;21.00;54.27
46778;BME280;32536;47.128;8.746;2023-07-29T06:47:16;91500.19;;;21.05;53.67
46778;BME280;32536;47.128;8.746;2023-07-29T06:49:43;91496.63;;;21.14;53.87
46778;BME280;32536;47.128;8.746;2023-07-29T06:52:11;91500.41;;;21.22;53.71
46778;BME280;32536;47.128;8.746;2023-07-29T06:54:37;91502.47;;;21.27;53.96
46778;BME280;32536;47.128;8.746;2023-07-29T06:57:05;91498.13;;;21.36;53.50
46778;BME280;32536;47.128;8.746;2023-07-29T06:59:31;91501.19;;;21.43;53.85
46778;BME280;32536;47.128;8.746;2023-07-29T07:01:58;91502.00;;;21.50;53.59
46778;BME280;32536;47.128;8.746;2023-07-29T07:04:25;91494.47;;;21.59;53.55
46778;BME280;32536;47.128;8.746;2023-07-29T07:06:52;91494.31;;;21.69;53.42
46778;BME280;32536;47.128;8.746;2023-07-29T07:09:19;91491.94;;;21.77;53.56
46778;BME280;32536;47.128;8.746;2023-07-29T07:11:46;91501.66;;;21.83;53.49
46778;BME280;32536;47.128;8.746;2023-07-29T07:14:12;91499.28;;;21.91;53.43
46778;BME280;32536;47.128;8.746;2023-07-29T07:16:39;91497.34;;;21.97;53.46
46778;BME280;32536;47.128;8.746;2023-07-29T07:19:06;91489.00;;;22.06;53.36
46778;BME280;32536;47.128;8.746;2023-07-29T07:21:32;91481.91;;;22.15;53.49
46778;BME280;32536;47.128;8.746;2023-07-29T07:24:00;91477.75;;;22.25;53.54
46778;BME280;32536;47.128;8.746;2023-07-29T07:26:27;91479.03;;;22.30;53.58
46778;BME280;32536;47.128;8.746;2023-07-29T07:28:53;91472.41;;;22.36;53.65
46778;BME280;32536;47.128;8.746;2023-07-29T07:31:20;91474.69;;;22.38;53.72
46778;BME280;32536;47.128;8.746;2023-07-29T07:33:47;91484.16;;;22.43;53.94
46778;BME280;32536;47.128;8.746;2023-07-29T07:36:14;91481.00;;;22.50;54.20
46778;BME280;32536;47.128;8.746;2023-07-29T07:38:41;91477.06;;;22.57;53.98
46778;BME280;32536;47.128;8.746;2023-07-29T07:41:08;91471.91;;;22.64;53.65
46778;BME280;32536;47.128;8.746;2023-07-29T07:43:34;91481.91;;;22.73;53.68
46778;BME280;32536;47.128;8.746;2023-07-29T07:46:02;91468.06;;;22.82;53.56
46778;BME280;32536;47.128;8.746;2023-07-29T07:48:30;91475.31;;;22.91;53.53
46778;BME280;32536;47.128;8.746;2023-07-29T07:50:58;91475.88;;;23.01;53.24
46778;BME280;32536;47.128;8.746;2023-07-29T07:53:25;91472.44;;;23.12;53.29
46778;BME280;32536;47.128;8.746;2023-07-29T07:55:52;91469.78;;;23.17;53.20
46778;BME280;32536;47.128;8.746;2023-07-29T07:58:19;91468.81;;;23.21;53.31
46778;BME280;32536;47.128;8.746;2023-07-29T08:00:45;91466.31;;;23.23;53.19
46778;BME280;32536;47.128;8.746;2023-07-29T08:03:12;91467.59;;;23.27;52.76
46778;BME280;32536;47.128;8.746;2023-07-29T08:05:39;91458.66;;;23.32;52.75
46778;BME280;32536;47.128;8.746;2023-07-29T08:08:05;91460.47;;;23.41;52.41
46778;BME280;32536;47.128;8.746;2023-07-29T08:10:32;91452.03;;;23.45;52.51
46778;BME280;32536;47.128;8.746;2023-07-29T08:12:59;91448.31;;;23.54;52.44
46778;BME280;32536;47.128;8.746;2023-07-29T08:15:26;91456.78;;;23.61;52.32
46778;BME280;32536;47.128;8.746;2023-07-29T08:17:52;91462.28;;;23.67;51.94
46778;BME280;32536;47.128;8.746;2023-07-29T08:20:19;91461.28;;;23.70;51.66
46778;BME280;32536;47.128;8.746;2023-07-29T08:22:46;91467.53;;;23.76;51.58
46778;BME280;32536;47.128;8.746;2023-07-29T08:25:12;91463.56;;;23.83;51.41
46778;BME280;32536;47.128;8.746;2023-07-29T08:27:39;91463.34;;;23.87;51.32
46778;BME280;32536;47.128;8.746;2023-07-29T08:30:06;91462.38;;;23.95;51.38
46778;BME280;32536;47.128;8.746;2023-07-29T08:32:34;91452.94;;;24.02;50.72
46778;BME280;32536;47.128;8.746;2023-07-29T08:35:01;91461.41;;;24.04;50.96
46778;BME280;32536;47.128;8.746;2023-07-29T08:37:27;91457.69;;;24.07;50.57
46778;BME280;32536;47.128;8.746;2023-07-29T08:39:55;91457.69;;;24.13;50.69
46778;BME280;32536;47.128;8.746;2023-07-29T08:42:23;91444.00;;;24.13;48.58
46778;BME280;32536;47.128;8.746;2023-07-29T08:44:51;91451.22;;;24.16;49.28
46778;BME280;32536;47.128;8.746;2023-07-29T08:47:21;91454.97;;;24.24;50.11
46778;BME280;32536;47.128;8.746;2023-07-29T08:49:48;91455.19;;;24.26;49.83
46778;BME280;32536;47.128;8.746;2023-07-29T08:52:18;91453.00;;;24.30;50.02
46778;BME280;32536;47.128;8.746;2023-07-29T08:54:45;91463.44;;;24.32;49.70
46778;BME280;32536;47.128;8.746;2023-07-29T08:57:13;91464.19;;;24.38;49.98
46778;BME280;32536;47.128;8.746;2023-07-29T08:59:40;91460.44;;;24.47;49.89
46778;BME280;32536;47.128;8.746;2023-07-29T09:02:08;91462.44;;;24.58;50.25
46778;BME280;32536;47.128;8.746;2023-07-29T09:04:34;91456.25;;;24.69;50.43
46778;BME280;32536;47.128;8.746;2023-07-29T09:07:01;91455.97;;;24.84;50.01
46778;BME280;32536;47.128;8.746;2023-07-29T09:12:13;91466.66;;;25.10;49.70
46778;BME280;32536;47.128;8.746;2023-07-29T09:14:40;91469.34;;;25.21;49.62
46778;BME280;32536;47.128;8.746;2023-07-29T09:17:08;91461.63;;;25.25;48.84
46778;BME280;32536;47.128;8.746;2023-07-29T09:19:35;91464.63;;;25.22;48.96
46778;BME280;32536;47.128;8.746;2023-07-29T09:22:02;91461.63;;;25.20;48.84
46778;BME280;32536;47.128;8.746;2023-07-29T09:24:29;91452.16;;;25.21;49.13
46778;BME280;32536;47.128;8.746;2023-07-29T09:26:58;91441.47;;;25.17;48.42
46778;BME280;32536;47.128;8.746;2023-07-29T09:29:28;91447.72;;;25.06;46.50
46778;BME280;32536;47.128;8.746;2023-07-29T09:32:18;91451.69;;;25.00;46.48
46778;BME280;32536;47.128;8.746;2023-07-29T09:34:46;91454.69;;;25.02;48.51
46778;BME280;32536;47.128;8.746;2023-07-29T09:37:23;91462.66;;;25.00;47.56
46778;BME280;32536;47.128;8.746;2023-07-29T09:39:50;91459.66;;;25.03;48.63
46778;BME280;32536;47.128;8.746;2023-07-29T09:42:21;91449.47;;;24.98;47.82
46778;BME280;32536;47.128;8.746;2023-07-29T09:44:49;91446.00;;;24.98;48.53
46778;BME280;32536;47.128;8.746;2023-07-29T09:47:24;91447.25;;;24.97;48.11
46778;BME280;32536;47.128;8.746;2023-07-29T09:49:52;91454.19;;;25.03;48.39
46778;BME280;32536;47.128;8.746;2023-07-29T09:52:22;91440.22;;;25.07;48.34
46778;BME280;32536;47.128;8.746;2023-07-29T09:54:49;91446.44;;;25.13;48.56
46778;BME280;32536;47.128;8.746;2023-07-29T09:57:18;91455.66;;;25.21;48.53
46778;BME280;32536;47.128;8.746;2023-07-29T09:59:54;91454.41;;;25.22;46.70
46778;BME280;32536;47.128;8.746;2023-07-29T10:02:22;91458.38;;;25.27;48.53
46778;BME280;32536;47.128;8.746;2023-07-29T10:04:52;91454.34;;;25.34;48.25
46778;BME280;32536;47.128;8.746;2023-07-29T10:07:19;91463.56;;;25.36;48.20
46778;BME280;32536;47.128;8.746;2023-07-29T10:09:46;91460.09;;;25.36;48.04
46778;BME280;32536;47.128;8.746;2023-07-29T10:12:13;91464.34;;;25.37;47.92
46778;BME280;32536;47.128;8.746;2023-07-29T10:14:40;91464.06;;;25.35;47.62
46778;BME280;32536;47.128;8.746;2023-07-29T10:17:08;91477.78;;;25.35;47.84
46778;BME280;32536;47.128;8.746;2023-07-29T10:19:36;91471.31;;;25.32;47.76
46778;BME280;32536;47.128;8.746;2023-07-29T10:22:04;91475.81;;;25.35;47.72
46778;BME280;32536;47.128;8.746;2023-07-29T10:24:33;91477.03;;;25.40;48.33
46778;BME280;32536;47.128;8.746;2023-07-29T10:27:00;91469.31;;;25.44;48.01
46778;BME280;32536;47.128;8.746;2023-07-29T10:29:31;91478.53;;;25.47;48.10
46778;BME280;32536;47.128;8.746;2023-07-29T10:32:01;91466.81;;;25.46;47.89
46778;BME280;32536;47.128;8.746;2023-07-29T10:34:31;91470.81;;;25.45;48.24
46778;BME280;32536;47.128;8.746;2023-07-29T10:36:58;91472.81;;;25.45;48.15
46778;BME280;32536;47.128;8.746;2023-07-29T10:39:25;91459.59;;;25.49;48.02
46778;BME280;32536;47.128;8.746;2023-07-29T10:42:03;91462.81;;;25.47;47.13
46778;BME280;32536;47.128;8.746;2023-07-29T10:47:24;91460.06;;;25.59;47.25
46778;BME280;32536;47.128;8.746;2023-07-29T10:49:55;91457.53;;;25.61;47.86
46778;BME280;32536;47.128;8.746;2023-07-29T10:55:03;91448.25;;;25.69;48.28
46778;BME280;32536;47.128;8.746;2023-07-29T10:57:31;91443.53;;;25.70;48.24
46778;BME280;32536;47.128;8.746;2023-07-29T11:00:04;91442.78;;;25.69;47.59
46778;BME280;32536;47.128;8.746;2023-07-29T11:02:35;91447.06;;;25.65;47.35
46778;BME280;32536;47.128;8.746;2023-07-29T11:05:08;91438.31;;;25.61;47.31
46778;BME280;32536;47.128;8.746;2023-07-29T11:07:44;91419.13;;;25.61;47.91
46778;BME280;32536;47.128;8.746;2023-07-29T11:10:12;91433.09;;;25.63;47.83
46778;BME280;32536;47.128;8.746;2023-07-29T11:12:49;91430.09;;;25.61;47.05
46778;BME280;32536;47.128;8.746;2023-07-29T11:15:22;91423.63;;;25.64;47.88
46778;BME280;32536;47.128;8.746;2023-07-29T11:20:25;91413.88;;;25.68;47.94
46778;BME280;32536;47.128;8.746;2023-07-29T11:22:54;91405.41;;;25.66;47.55
46778;BME280;32536;47.128;8.746;2023-07-29T11:25:24;91402.66;;;25.66;47.87
46778;BME280;32536;47.128;8.746;2023-07-29T11:27:55;91396.63;;;25.73;47.76
46778;BME280;32536;47.128;8.746;2023-07-29T11:30:23;91389.63;;;25.78;47.79
46778;BME280;32536;47.128;8.746;2023-07-29T11:32:53;91394.09;;;25.81;47.45
46778;BME280;32536;47.128;8.746;2023-07-29T11:35:21;91398.06;;;25.80;47.60
46778;BME280;32536;47.128;8.746;2023-07-29T11:37:50;91391.09;;;25.79;47.28
46778;BME280;32536;47.128;8.746;2023-07-29T11:40:19;91390.81;;;25.83;47.60
46778;BME280;32536;47.128;8.746;2023-07-29T11:43:06;91383.03;;;25.93;47.57
46778;BME280;32536;47.128;8.746;2023-07-29T11:45:33;91382.53;;;25.94;47.77
46778;BME280;32536;47.128;8.746;2023-07-29T11:54:13;91378.22;;;26.04;47.50
46778;BME280;32536;47.128;8.746;2023-07-29T11:56:40;91371.47;;;26.11;47.70
46778;BME280;32536;47.128;8.746;2023-07-29T11:59:07;91380.63;;;26.19;47.42
46778;BME280;32536;47.128;8.746;2023-07-29T12:01:34;91387.56;;;26.26;47.37
46778;BME280;32536;47.128;8.746;2023-07-29T12:04:01;91387.56;;;26.26;47.33
46778;BME280;32536;47.128;8.746;2023-07-29T12:06:28;91402.72;;;26.33;47.11
46778;BME280;32536;47.128;8.746;2023-07-29T12:08:57;91399.50;;;26.34;47.05
46778;BME280;32536;47.128;8.746;2023-07-29T12:11:24;91400.94;;;26.41;46.60
46778;BME280;32536;47.128;8.746;2023-07-29T12:13:53;91398.69;;;26.40;45.72
46778;BME280;32536;47.128;8.746;2023-07-29T12:16:20;91398.41;;;26.43;46.73
46778;BME280;32536;47.128;8.746;2023-07-29T12:18:46;91406.38;;;26.47;46.63
46778;BME280;32536;47.128;8.746;2023-07-29T12:21:15;91394.59;;;26.52;46.93
46778;BME280;32536;47.128;8.746;2023-07-29T12:23:42;91404.28;;;26.59;46.82
46778;BME280;32536;47.128;8.746;2023-07-29T12:26:09;91394.78;;;26.60;46.54
46778;BME280;32536;47.128;8.746;2023-07-29T12:28:36;91399.25;;;26.63;46.68
46778;BME280;32536;47.128;8.746;2023-07-29T12:31:07;91420.22;;;26.66;46.60
46778;BME280;32536;47.128;8.746;2023-07-29T12:33:37;91421.97;;;26.63;46.99
46778;BME280;32536;47.128;8.746;2023-07-29T12:36:04;91427.59;;;26.46;47.14
46778;BME280;32536;47.128;8.746;2023-07-29T12:38:32;91430.94;;;26.33;47.48
46778;BME280;32536;47.128;8.746;2023-07-29T12:40:58;91427.78;;;26.24;47.18
46778;BME280;32536;47.128;8.746;2023-07-29T12:43:25;91427.09;;;26.06;47.41
46778;BME280;32536;47.128;8.746;2023-07-29T12:45:52;91426.53;;;25.77;47.74
46778;BME280;32536;47.128;8.746;2023-07-29T12:48:19;91421.91;;;25.55;47.69
46778;BME280;32536;47.128;8.746;2023-07-29T12:50:45;91424.25;;;25.28;48.51
46778;BME280;32536;47.128;8.746;2023-07-29T12:53:12;91418.56;;;25.09;48.42
46778;BME280;32536;47.128;8.746;2023-07-29T12:55:39;91423.09;;;24.95;48.57
46778;BME280;32536;47.128;8.746;2023-07-29T12:58:06;91427.31;;;24.79;48.76
46778;BME280;32536;47.128;8.746;2023-07-29T13:00:32;91433.59;;;24.68;49.25
46778;BME280;32536;47.128;8.746;2023-07-29T13:02:59;91438.03;;;24.60;49.07
46778;BME280;32536;47.128;8.746;2023-07-29T13:05:26;91433.81;;;24.48;49.14
46778;BME280;32536;47.128;8.746;2023-07-29T13:07:52;91439.03;;;24.40;49.12
46778;BME280;32536;47.128;8.746;2023-07-29T13:10:19;91435.56;;;24.28;49.59
46778;BME280;32536;47.128;8.746;2023-07-29T13:12:46;91449.75;;;24.21;49.59
46778;BME280;32536;47.128;8.746;2023-07-29T13:15:14;91450.47;;;24.10;49.63
46778;BME280;32536;47.128;8.746;2023-07-29T13:17:40;91435.53;;;24.00;49.68
46778;BME280;32536;47.128;8.746;2023-07-29T13:20:07;91446.69;;;23.90;49.87
46778;BME280;32536;47.128;8.746;2023-07-29T13:22:34;91448.63;;;23.78;50.02
46778;BME280;32536;47.128;8.746;2023-07-29T13:25:01;91458.53;;;23.59;50.25
46778;BME280;32536;47.128;8.746;2023-07-29T13:27:28;91471.91;;;23.45;50.18
46778;BME280;32536;47.128;8.746;2023-07-29T13:29:55;91469.09;;;23.28;50.10